createdAt,value
2023-03-22T00:01:14.623Z,10.13
2023-03-22T00:03:42.145Z,10.00
2023-03-22T00:06:09.274Z,9.92
2023-03-22T00:08:36.029Z,10.06
2023-03-22T00:11:03.398Z,10.13
2023-03-22T00:13:30.031Z,10.15
2023-03-22T00:15:56.587Z,10.17
2023-03-22T00:18:23.748Z,10.15
2023-03-22T00:20:52.337Z,10.00
2023-03-22T00:23:19.640Z,9.93
2023-03-22T00:25:46.369Z,9.89
2023-03-22T00:28:13.665Z,9.90
2023-03-22T00:30:40.643Z,9.95
2023-03-22T00:33:07.493Z,9.96
2023-03-22T00:35:34.066Z,9.90
2023-03-22T00:38:00.537Z,9.88
2023-03-22T00:40:27.056Z,9.86
2023-03-22T00:42:53.549Z,9.83
2023-03-22T00:45:20.032Z,9.77
2023-03-22T00:47:46.574Z,9.71
2023-03-22T00:50:13.065Z,9.60
2023-03-22T00:52:39.528Z,9.58
2023-03-22T00:55:06.325Z,9.56
2023-03-22T00:57:32.796Z,9.59
2023-03-22T00:59:59.329Z,9.40
2023-03-22T01:02:25.820Z,9.38
2023-03-22T01:04:52.283Z,9.18
2023-03-22T01:07:18.731Z,9.10
2023-03-22T01:09:45.502Z,9.14
2023-03-22T01:12:12.345Z,9.08
2023-03-22T01:14:39.288Z,9.06
2023-03-22T01:17:06.588Z,9.07
2023-03-22T01:19:33.491Z,9.05
2023-03-22T01:22:00.091Z,9.08
2023-03-22T01:24:26.598Z,9.06
2023-03-22T01:26:53.075Z,9.02
2023-03-22T01:29:19.540Z,8.85
2023-03-22T01:31:46.010Z,8.88
2023-03-22T01:34:12.453Z,8.86
2023-03-22T01:36:38.908Z,8.79
2023-03-22T01:39:05.385Z,8.76
2023-03-22T01:41:31.882Z,8.68
2023-03-22T01:44:13.647Z,8.60
2023-03-22T01:46:42.256Z,8.60
2023-03-22T01:49:33.963Z,8.48
2023-03-22T01:52:08.207Z,8.49
2023-03-22T01:54:45.181Z,8.39
2023-03-22T01:57:12.382Z,8.32
2023-03-22T01:59:40.744Z,8.34
2023-03-22T02:02:07.743Z,8.21
2023-03-22T02:04:36.557Z,8.30
2023-03-22T02:07:07.456Z,8.24
2023-03-22T02:09:33.895Z,8.22
2023-03-22T02:12:40.875Z,8.15
2023-03-22T02:15:24.778Z,8.11
2023-03-22T02:17:51.211Z,8.09
2023-03-22T02:20:33.438Z,7.99
2023-03-22T02:23:05.993Z,7.82
2023-03-22T02:25:56.916Z,7.71
2023-03-22T02:28:23.336Z,7.74
2023-03-22T02:30:55.525Z,7.87
2023-03-22T02:33:34.078Z,8.02
2023-03-22T02:36:24.884Z,8.15
2023-03-22T02:39:18.738Z,8.14
2023-03-22T02:41:57.304Z,8.24
2023-03-22T02:44:41.933Z,8.26
2023-03-22T02:47:32.875Z,8.26
2023-03-22T02:50:09.916Z,8.27
2023-03-22T02:52:54.328Z,8.24
2023-03-22T02:55:29.234Z,8.27
2023-03-22T02:58:03.262Z,8.21
2023-03-22T03:00:31.232Z,8.13
2023-03-22T03:03:04.791Z,8.08
2023-03-22T03:05:33.304Z,8.01
2023-03-22T03:08:02.518Z,7.85
2023-03-22T03:10:29.463Z,7.68
2023-03-22T03:12:55.940Z,7.57
2023-03-22T03:15:22.928Z,7.45
2023-03-22T03:18:04.659Z,7.33
2023-03-22T03:20:56.710Z,7.28
2023-03-22T03:23:38.149Z,7.21
2023-03-22T03:26:29.935Z,7.17
2023-03-22T03:29:09.924Z,7.32
2023-03-22T03:31:44.888Z,7.44
2023-03-22T03:34:17.568Z,7.42
2023-03-22T03:36:53.825Z,7.35
2023-03-22T03:39:21.952Z,7.19
2023-03-22T03:41:52.144Z,7.22
2023-03-22T03:44:19.461Z,7.28
2023-03-22T03:46:46.588Z,7.33
2023-03-22T03:49:15.763Z,7.37
2023-03-22T03:51:54.471Z,7.37
2023-03-22T03:54:21.929Z,7.33
2023-03-22T03:56:48.799Z,7.31
2023-03-22T03:59:16.945Z,7.29
2023-03-22T04:01:44.899Z,7.21
2023-03-22T04:04:11.379Z,7.17
2023-03-22T04:06:37.836Z,7.10
2023-03-22T04:09:04.331Z,7.07
2023-03-22T04:11:30.783Z,7.04
2023-03-22T04:13:57.245Z,6.97
2023-03-22T04:16:23.869Z,6.87
2023-03-22T04:18:50.656Z,6.76
2023-03-22T04:21:17.276Z,6.67
2023-03-22T04:23:43.711Z,6.50
2023-03-22T04:26:10.132Z,6.44
2023-03-22T04:28:36.607Z,6.46
2023-03-22T04:31:03.142Z,6.44
2023-03-22T04:33:29.638Z,6.37
2023-03-22T04:35:56.112Z,6.28
2023-03-22T04:38:23.136Z,6.21
2023-03-22T04:40:49.585Z,6.22
2023-03-22T04:43:16.080Z,6.31
2023-03-22T04:45:42.576Z,6.40
2023-03-22T04:48:09.112Z,6.38
2023-03-22T04:50:35.609Z,6.44
2023-03-22T04:53:02.081Z,6.48
2023-03-22T04:55:28.540Z,6.48
2023-03-22T04:57:55.020Z,6.48
2023-03-22T05:00:21.613Z,6.45
2023-03-22T05:02:48.126Z,6.40
2023-03-22T05:05:14.704Z,6.40
2023-03-22T05:07:41.154Z,6.40
2023-03-22T05:10:08.216Z,6.28
2023-03-22T05:12:34.679Z,6.18
2023-03-22T05:15:01.155Z,6.18
2023-03-22T05:17:27.666Z,6.17
2023-03-22T05:19:54.168Z,6.33
2023-03-22T05:22:20.632Z,6.37
2023-03-22T05:24:47.053Z,6.43
2023-03-22T05:27:13.532Z,6.53
2023-03-22T05:29:40.350Z,6.66
2023-03-22T05:32:06.845Z,6.71
2023-03-22T05:34:33.372Z,6.59
2023-03-22T05:36:59.783Z,6.64
2023-03-22T05:39:26.217Z,6.80
2023-03-22T05:41:52.744Z,6.89
2023-03-22T05:44:19.217Z,6.94
2023-03-22T05:46:45.650Z,7.08
2023-03-22T05:49:12.322Z,7.40
2023-03-22T05:51:38.789Z,8.08
2023-03-22T05:54:05.369Z,8.94
2023-03-22T05:56:32.066Z,9.55
2023-03-22T05:58:58.546Z,9.92
2023-03-22T06:01:24.986Z,10.10
2023-03-22T06:03:51.451Z,9.71
2023-03-22T06:06:17.932Z,9.70
2023-03-22T06:08:44.387Z,10.22
2023-03-22T06:11:11.316Z,10.84
2023-03-22T06:13:38.087Z,11.52
2023-03-22T06:16:05.131Z,11.77
2023-03-22T06:18:32.458Z,11.65
2023-03-22T06:20:59.126Z,11.49
2023-03-22T06:23:25.684Z,11.27
2023-03-22T06:25:52.323Z,10.96
2023-03-22T06:28:18.797Z,10.50
2023-03-22T06:30:45.326Z,10.41
2023-03-22T06:33:12.749Z,10.23
2023-03-22T06:35:39.242Z,10.63
2023-03-22T06:38:05.751Z,10.85
2023-03-22T06:40:32.235Z,10.77
2023-03-22T06:43:00.443Z,11.08
2023-03-22T06:45:29.561Z,11.29
2023-03-22T06:47:56.078Z,11.20
2023-03-22T06:50:22.584Z,11.36
2023-03-22T06:52:49.068Z,11.48
2023-03-22T06:55:15.577Z,11.60
2023-03-22T06:57:42.027Z,11.05
2023-03-22T07:00:09.235Z,11.52
2023-03-22T07:02:35.686Z,11.78
2023-03-22T07:05:02.167Z,11.72
2023-03-22T07:07:28.626Z,11.90
2023-03-22T07:09:55.306Z,12.29
2023-03-22T07:12:21.772Z,12.27
2023-03-22T07:14:48.747Z,12.72
2023-03-22T07:17:15.209Z,13.03
2023-03-22T07:19:41.629Z,13.04
2023-03-22T07:22:08.117Z,12.79
2023-03-22T07:24:36.039Z,12.76
2023-03-22T07:27:03.687Z,12.80
2023-03-22T07:29:30.292Z,13.01
2023-03-22T07:31:56.801Z,13.49
2023-03-22T07:34:23.351Z,14.17
2023-03-22T07:36:50.076Z,14.76
2023-03-22T07:39:16.547Z,14.97
2023-03-22T07:41:42.974Z,15.08
2023-03-22T07:44:17.783Z,14.86
2023-03-22T07:46:44.833Z,14.68
2023-03-22T07:49:11.487Z,14.84
2023-03-22T07:51:38.049Z,14.90
2023-03-22T07:54:07.518Z,15.01
2023-03-22T07:56:34.685Z,15.04
2023-03-22T07:59:01.370Z,14.79
2023-03-22T08:01:27.848Z,14.27
2023-03-22T08:03:54.325Z,13.96
2023-03-22T08:06:20.797Z,13.37
2023-03-22T08:08:47.588Z,13.11
2023-03-22T08:11:14.137Z,13.28
2023-03-22T08:13:40.734Z,13.29
2023-03-22T08:16:07.380Z,13.32
2023-03-22T08:18:33.907Z,13.09
2023-03-22T08:21:00.761Z,12.92
2023-03-22T08:23:40.405Z,13.08
2023-03-22T08:26:08.985Z,13.14
2023-03-22T08:28:35.526Z,13.12
2023-03-22T08:31:02.019Z,13.57
2023-03-22T08:33:28.470Z,14.08
2023-03-22T08:36:05.056Z,14.22
2023-03-22T08:38:31.540Z,13.77
2023-03-22T08:40:57.974Z,13.53
2023-03-22T08:43:24.470Z,13.58
2023-03-22T08:45:51.046Z,14.21
2023-03-22T08:48:17.566Z,14.73
2023-03-22T08:50:44.216Z,15.56
2023-03-22T08:53:10.761Z,16.26
2023-03-22T08:55:37.936Z,16.13
2023-03-22T08:58:04.517Z,16.18
2023-03-22T09:00:45.722Z,16.82
2023-03-22T09:03:14.507Z,17.41
2023-03-22T09:05:41.470Z,17.81
2023-03-22T09:08:08.682Z,18.17
2023-03-22T09:10:37.748Z,16.79
2023-03-22T09:13:04.196Z,16.96
2023-03-22T09:15:30.669Z,18.00
2023-03-22T09:17:57.160Z,18.89
2023-03-22T09:20:23.751Z,19.31
2023-03-22T09:22:50.244Z,19.66
2023-03-22T09:25:16.840Z,19.76
2023-03-22T09:27:43.357Z,20.15
2023-03-22T09:30:10.362Z,19.99
2023-03-22T09:32:36.848Z,19.24
2023-03-22T09:35:03.398Z,19.22
2023-03-22T09:37:29.831Z,19.56
2023-03-22T09:39:57.236Z,20.14
2023-03-22T09:42:26.378Z,20.73
2023-03-22T09:44:55.678Z,20.17
2023-03-22T09:47:43.957Z,20.73
2023-03-22T09:50:25.942Z,21.45
2023-03-22T09:52:53.499Z,20.97
2023-03-22T09:55:53.908Z,20.91
2023-03-22T09:58:23.479Z,21.26
2023-03-22T10:01:00.033Z,20.55
2023-03-22T10:03:44.984Z,20.37
2023-03-22T10:06:26.887Z,20.37
2023-03-22T10:09:18.697Z,20.33
2023-03-22T10:12:15.683Z,20.37
2023-03-22T10:14:58.676Z,21.40
2023-03-22T10:17:29.423Z,21.73
2023-03-22T10:20:23.670Z,21.35
2023-03-22T10:22:53.387Z,20.98
2023-03-22T10:25:25.270Z,20.68
2023-03-22T10:27:52.576Z,19.94
2023-03-22T10:30:25.312Z,20.25
2023-03-22T10:33:03.625Z,19.82
2023-03-22T10:35:32.067Z,19.77
2023-03-22T10:38:02.092Z,19.57
2023-03-22T10:40:35.254Z,19.67
2023-03-22T10:43:07.897Z,19.30
2023-03-22T10:45:36.091Z,19.24
2023-03-22T10:48:05.921Z,19.23
2023-03-22T10:50:38.105Z,19.26
2023-03-22T10:53:04.499Z,18.62
2023-03-22T10:55:31.251Z,18.85
2023-03-22T10:58:20.738Z,19.00
2023-03-22T11:00:58.850Z,18.48
2023-03-22T11:03:39.277Z,17.98
2023-03-22T11:06:10.592Z,17.95
2023-03-22T11:08:41.787Z,17.92
2023-03-22T11:11:15.816Z,18.06
2023-03-22T11:13:42.393Z,17.64
2023-03-22T11:16:08.862Z,17.58
2023-03-22T11:18:35.417Z,17.72
2023-03-22T11:21:09.656Z,17.66
2023-03-22T11:23:38.923Z,17.49
2023-03-22T11:26:09.823Z,17.53
2023-03-22T11:28:50.046Z,17.35
2023-03-22T11:31:20.973Z,17.41
2023-03-22T11:33:55.624Z,17.63
2023-03-22T11:36:22.318Z,17.52
2023-03-22T11:38:56.276Z,17.84
2023-03-22T11:41:22.716Z,17.93
2023-03-22T11:43:54.168Z,17.98
2023-03-22T11:46:21.561Z,17.71
2023-03-22T11:48:51.016Z,17.98
2023-03-22T11:51:28.026Z,18.23
2023-03-22T11:54:04.463Z,18.40
2023-03-22T11:56:31.064Z,18.33
2023-03-22T11:59:02.016Z,18.19
2023-03-22T12:01:40.681Z,17.09
2023-03-22T12:04:16.138Z,16.29
2023-03-22T12:06:43.403Z,15.73
2023-03-22T12:09:31.835Z,15.08
2023-03-22T12:12:01.939Z,15.05
2023-03-22T12:14:33.498Z,15.08
2023-03-22T12:17:06.060Z,15.13
2023-03-22T12:20:16.178Z,14.92
2023-03-22T12:22:48.015Z,14.38
2023-03-22T12:25:29.079Z,14.11
2023-03-22T12:28:03.119Z,14.16
2023-03-22T12:30:33.678Z,14.35
2023-03-22T12:33:11.329Z,14.38
2023-03-22T12:35:44.134Z,14.48
2023-03-22T12:38:30.913Z,14.70
2023-03-22T12:41:03.742Z,14.93
2023-03-22T12:43:44.433Z,15.04
2023-03-22T12:46:18.854Z,15.12
2023-03-22T12:48:53.563Z,15.25
2023-03-22T12:51:20.065Z,15.37
2023-03-22T12:53:53.277Z,15.48
2023-03-22T12:56:27.098Z,15.57
2023-03-22T12:58:57.969Z,15.60
2023-03-22T13:01:37.583Z,15.74
2023-03-22T13:04:22.514Z,15.64
2023-03-22T13:06:48.913Z,15.70
2023-03-22T13:09:18.547Z,15.76
2023-03-22T13:12:08.931Z,15.77
2023-03-22T13:14:50.451Z,15.78
2023-03-22T13:17:23.267Z,15.81
2023-03-22T13:20:22.071Z,15.91
2023-03-22T13:22:48.379Z,15.85
2023-03-22T13:25:17.568Z,15.87
2023-03-22T13:27:55.833Z,16.17
2023-03-22T13:30:27.412Z,16.54
2023-03-22T13:33:07.461Z,16.86
2023-03-22T13:35:44.793Z,17.11
2023-03-22T13:38:42.573Z,17.12
2023-03-22T13:41:23.977Z,17.28
2023-03-22T13:44:03.306Z,17.15
2023-03-22T13:46:36.919Z,17.02
2023-03-22T13:49:03.547Z,16.91
2023-03-22T13:51:32.041Z,16.55
2023-03-22T13:54:08.922Z,16.31
2023-03-22T13:56:41.357Z,15.75
2023-03-22T13:59:13.683Z,15.05
2023-03-22T14:01:47.327Z,14.81
2023-03-22T14:04:17.902Z,14.86
2023-03-22T14:06:55.505Z,14.98
2023-03-22T14:09:34.530Z,14.72
2023-03-22T14:12:11.546Z,14.71
2023-03-22T14:14:43.116Z,14.33
2023-03-22T14:17:35.636Z,13.96
2023-03-22T14:20:03.929Z,13.91
